Bethel Airport Bethel US
ICAO: PABE
IATA:
Category: Medium
Scheduled Services:

Elevation: 126 ft
TransAlt. 18000 ft.

Airport Communications:
ATIS:119.8
ANCHORAGE CNTR:125.2
CTAF/BETHEL WX:118.7
KENAI RDO:122.65
GND:121.7
TWEB:114.1
NG OPS:124.65
TWR:118.7

PABE Zoom In..

If you have problems with the map follow the link
https://www.worldairports.se/pages/airport.php?
ICAO=PABE

Runways:

(A) RW 01L length 6400 ft width 150 ft
---- / hdg 9

(B) RW 01R length 4000 ft width 75 ft
---- / hdg 10

(C) RW 12 length 1858 ft width 75 ft
---- / hdg 114

(D) RW 19L length 4000 ft width 75 ft
---- / hdg 190

(E) RW 19R length 6400 ft width 150 ft
ILS 111.50 / hdg 189

(F) RW 30 length 1858 ft width 75 ft
---- / hdg 294

Location; PABE
Day. 06 / Time. 01.53 Zulu
* Altimeter: 29.55
* Temperature: -10° c. -14°f.
* Wind from: 040° Speed 14 kn.
Dewpoint: -12° c.
Visibility: 10 Statute Miles.
Clouds: Broken 3000 ft.
Clouds: Overcast 3600 ft.

PABE 060153Z 04014KT 10SM BKN030 OVC036 M10/M12 A2955 RMK AO2 SNE02B18E31 SLP009 P0000 T11001117 $


Wind From 040°
Speed 14 kn.

 
 
jpsmedia worldairports.se 2019   terms of use